createdAt,value
2018-05-08T00:00:00.545Z,68.58
2018-05-08T00:02:28.828Z,68.39
2018-05-08T00:04:57.089Z,69.25
2018-05-08T00:07:26.220Z,69.37
2018-05-08T00:09:54.489Z,69.19
2018-05-08T00:12:22.737Z,69.12
2018-05-08T00:14:51.832Z,69.35
2018-05-08T00:17:20.957Z,69.71
2018-05-08T00:19:49.220Z,69.71
2018-05-08T00:22:17.497Z,69.59
2018-05-08T00:24:45.744Z,69.85
2018-05-08T00:27:14.753Z,69.91
2018-05-08T00:29:43.056Z,69.75
2018-05-08T00:32:11.312Z,69.86
2018-05-08T00:34:39.592Z,70.54
2018-05-08T00:37:07.862Z,70.53
2018-05-08T00:39:36.117Z,70.86
2018-05-08T00:42:05.143Z,71.50
2018-05-08T00:44:33.431Z,71.96
2018-05-08T00:47:01.679Z,72.02
2018-05-08T00:49:30.697Z,72.22
2018-05-08T00:51:58.965Z,73.00
2018-05-08T00:54:45.024Z,73.69
2018-05-08T00:57:13.291Z,75.06
2018-05-08T00:59:41.561Z,75.60
2018-05-08T01:02:09.816Z,75.28
2018-05-08T01:04:38.080Z,75.15
2018-05-08T01:07:06.334Z,74.88
2018-05-08T01:09:34.589Z,74.55
2018-05-08T01:12:03.613Z,74.48
2018-05-08T01:14:31.864Z,75.16
2018-05-08T01:17:00.907Z,75.60
2018-05-08T01:19:29.166Z,76.20
2018-05-08T01:21:57.421Z,76.17
2018-05-08T01:24:25.666Z,77.24
2018-05-08T01:26:53.959Z,77.91
2018-05-08T01:29:22.964Z,79.02
2018-05-08T01:31:51.226Z,80.05
2018-05-08T01:34:20.261Z,80.76
2018-05-08T01:36:48.597Z,80.64
2018-05-08T01:39:17.626Z,79.79
2018-05-08T01:41:45.901Z,80.27
2018-05-08T01:44:14.150Z,80.95
2018-05-08T01:46:43.181Z,81.00
2018-05-08T01:49:11.450Z,80.88
2018-05-08T01:51:39.697Z,80.20
2018-05-08T01:54:08.713Z,80.03
2018-05-08T01:56:36.976Z,80.58
2018-05-08T01:59:05.265Z,80.58
2018-05-08T02:01:33.520Z,80.93
2018-05-08T02:04:01.798Z,80.54
2018-05-08T02:06:30.044Z,80.41
2018-05-08T02:08:58.315Z,80.98
2018-05-08T02:11:26.584Z,81.59
2018-05-08T02:13:54.835Z,81.76
2018-05-08T02:16:23.094Z,81.47
2018-05-08T02:18:51.356Z,81.37
2018-05-08T02:21:19.615Z,81.21
2018-05-08T02:23:48.648Z,81.55
2018-05-08T02:26:16.925Z,81.20
2018-05-08T02:28:45.176Z,81.80
2018-05-08T02:31:13.426Z,81.32
2018-05-08T02:33:41.699Z,81.78
2018-05-08T02:36:10.018Z,82.60
2018-05-08T02:38:38.292Z,82.85
2018-05-08T02:41:06.672Z,83.01
2018-05-08T02:43:34.924Z,82.79
2018-05-08T02:46:03.956Z,82.80
2018-05-08T02:48:32.225Z,83.72
2018-05-08T02:51:01.245Z,82.63
2018-05-08T02:53:29.509Z,82.39
2018-05-08T02:55:57.774Z,82.43
2018-05-08T02:58:26.036Z,82.30
2018-05-08T03:00:54.292Z,82.98
2018-05-08T03:03:23.329Z,83.18
2018-05-08T03:05:51.594Z,82.61
2018-05-08T03:08:19.829Z,83.23
2018-05-08T03:10:48.862Z,83.38
2018-05-08T03:13:17.117Z,82.97
2018-05-08T03:15:46.132Z,82.85
2018-05-08T03:18:14.413Z,83.35
2018-05-08T03:20:42.656Z,83.47
2018-05-08T03:23:10.951Z,83.79
2018-05-08T03:25:39.218Z,83.52
2018-05-08T03:28:07.470Z,83.76
2018-05-08T03:30:35.721Z,84.20
2018-05-08T03:33:04.000Z,83.50
2018-05-08T03:35:32.255Z,83.20
2018-05-08T03:38:00.498Z,83.46
2018-05-08T03:40:29.517Z,82.62
2018-05-08T03:42:57.760Z,82.87
2018-05-08T03:45:27.671Z,83.19
2018-05-08T03:47:56.698Z,82.35
2018-05-08T03:50:24.986Z,85.25
2018-05-08T03:52:53.296Z,84.46
2018-05-08T03:55:21.621Z,84.64
2018-05-08T03:57:49.927Z,85.16
2018-05-08T04:00:36.017Z,84.84
2018-05-08T04:03:22.164Z,86.19
2018-05-08T04:06:03.498Z,85.86
2018-05-08T04:08:31.740Z,84.75
2018-05-08T04:10:59.992Z,85.47
2018-05-08T04:13:29.015Z,85.50
2018-05-08T04:15:57.266Z,85.78
2018-05-08T04:18:26.274Z,84.73
2018-05-08T04:20:54.523Z,84.82
2018-05-08T04:23:23.537Z,84.34
2018-05-08T04:25:52.638Z,84.36
2018-05-08T04:28:20.918Z,84.87
2018-05-08T04:30:49.161Z,84.66
2018-05-08T04:33:17.482Z,84.83
2018-05-08T04:35:45.764Z,85.38
2018-05-08T04:38:14.017Z,85.69
2018-05-08T04:40:42.332Z,85.32
2018-05-08T04:43:10.673Z,84.35
2018-05-08T04:45:38.933Z,84.80
2018-05-08T04:48:08.046Z,84.54
2018-05-08T04:50:36.320Z,84.85
2018-05-08T04:53:04.605Z,84.24
2018-05-08T04:55:32.850Z,84.09
2018-05-08T04:58:01.892Z,83.90
2018-05-08T05:00:30.153Z,83.31
2018-05-08T05:02:58.408Z,83.77
2018-05-08T05:05:27.524Z,83.73
2018-05-08T05:07:55.808Z,83.05
2018-05-08T05:10:24.047Z,82.58
2018-05-08T05:12:53.070Z,81.72
2018-05-08T05:15:21.336Z,81.90
2018-05-08T05:17:49.586Z,81.22
2018-05-08T05:20:17.838Z,80.76
2018-05-08T05:22:46.098Z,80.26
2018-05-08T05:25:14.351Z,79.28
2018-05-08T05:27:42.600Z,79.72
2018-05-08T05:30:11.625Z,79.97
2018-05-08T05:32:39.935Z,80.27
2018-05-08T05:35:08.915Z,79.51
2018-05-08T05:37:37.181Z,79.07
2018-05-08T05:40:06.687Z,78.70
2018-05-08T05:42:34.975Z,78.07
2018-05-08T05:45:03.353Z,77.57
2018-05-08T05:47:31.610Z,76.90
2018-05-08T05:49:59.861Z,76.50
2018-05-08T05:52:28.969Z,76.16
2018-05-08T05:54:57.216Z,75.91
2018-05-08T05:57:26.249Z,75.95
2018-05-08T05:59:54.501Z,75.72
2018-05-08T06:02:23.617Z,75.52
2018-05-08T06:04:51.895Z,75.45
2018-05-08T06:07:20.138Z,74.59
2018-05-08T06:09:49.173Z,73.97
2018-05-08T06:12:17.437Z,74.20
2018-05-08T06:14:45.694Z,74.78
2018-05-08T06:17:14.803Z,74.33
2018-05-08T06:19:43.059Z,73.62
2018-05-08T06:22:12.157Z,73.78
2018-05-08T06:24:40.371Z,73.83
2018-05-08T06:27:08.633Z,73.84
2018-05-08T06:29:36.889Z,73.03
2018-05-08T06:32:05.150Z,72.72
2018-05-08T06:34:34.269Z,72.78
2018-05-08T06:37:02.541Z,71.85
2018-05-08T06:39:31.630Z,71.58
2018-05-08T06:41:59.918Z,71.58
2018-05-08T06:44:28.188Z,71.92
2018-05-08T06:46:57.297Z,72.59
2018-05-08T06:49:25.568Z,72.10
2018-05-08T06:51:53.825Z,71.94
2018-05-08T06:54:22.833Z,71.25
2018-05-08T06:56:51.121Z,70.05
2018-05-08T06:59:19.391Z,69.75
2018-05-08T07:01:47.667Z,70.04
2018-05-08T07:04:15.988Z,70.52
2018-05-08T07:06:44.240Z,69.71
2018-05-08T07:09:12.573Z,68.07
2018-05-08T07:11:40.752Z,68.13
2018-05-08T07:14:09.771Z,65.26
2018-05-08T07:16:38.051Z,62.83
2018-05-08T07:19:06.297Z,62.13
2018-05-08T07:21:35.318Z,60.91
2018-05-08T07:24:03.652Z,61.30
2018-05-08T07:26:31.833Z,63.25
2018-05-08T07:29:00.092Z,59.36
2018-05-08T07:31:28.385Z,58.49
2018-05-08T07:33:56.622Z,58.21
2018-05-08T07:36:24.898Z,58.44
2018-05-08T07:38:53.166Z,56.28
2018-05-08T07:41:21.421Z,55.05
2018-05-08T07:43:49.671Z,58.10
2018-05-08T07:46:18.805Z,57.80
2018-05-08T07:48:47.066Z,58.15
2018-05-08T07:51:15.318Z,56.16
2018-05-08T07:53:44.349Z,56.24
2018-05-08T07:56:12.602Z,54.62
2018-05-08T07:58:41.614Z,54.53
2018-05-08T08:01:09.889Z,54.42
2018-05-08T08:03:38.163Z,54.16
2018-05-08T08:06:07.180Z,53.44
2018-05-08T08:08:35.458Z,54.55
2018-05-08T08:11:03.807Z,55.03
2018-05-08T08:13:31.969Z,53.87
2018-05-08T08:16:01.006Z,53.94
2018-05-08T08:18:29.354Z,53.80
2018-05-08T08:20:57.536Z,52.91
2018-05-08T08:23:25.806Z,52.63
2018-05-08T08:25:54.057Z,52.32
2018-05-08T08:28:23.069Z,51.41
2018-05-08T08:30:51.354Z,50.26
2018-05-08T08:33:19.620Z,51.86
2018-05-08T08:35:47.885Z,51.31
2018-05-08T08:38:16.937Z,51.70
2018-05-08T08:40:45.189Z,51.02
2018-05-08T08:43:13.436Z,48.72
2018-05-08T08:45:41.709Z,48.17
2018-05-08T08:48:10.731Z,46.91
2018-05-08T08:50:38.980Z,45.96
2018-05-08T08:53:08.013Z,47.37
2018-05-08T08:55:36.268Z,46.01
2018-05-08T08:58:04.517Z,45.65
2018-05-08T09:00:33.582Z,46.29
2018-05-08T09:03:01.841Z,45.58
2018-05-08T09:05:30.089Z,45.28
2018-05-08T09:07:58.353Z,46.55
2018-05-08T09:10:26.601Z,44.93
2018-05-08T09:12:54.862Z,45.61
2018-05-08T09:15:23.152Z,45.74
2018-05-08T09:17:51.397Z,44.22
2018-05-08T09:20:19.661Z,42.82
2018-05-08T09:22:47.910Z,43.44
2018-05-08T09:25:16.162Z,42.97
2018-05-08T09:27:44.457Z,44.04
2018-05-08T09:30:13.465Z,44.00
2018-05-08T09:32:41.721Z,42.92
2018-05-08T09:35:10.756Z,43.28
2018-05-08T09:37:39.016Z,42.63
2018-05-08T09:40:07.373Z,43.46
2018-05-08T09:42:36.406Z,41.18
2018-05-08T09:45:04.650Z,44.00
2018-05-08T09:47:32.910Z,42.94
2018-05-08T09:50:01.965Z,40.61
2018-05-08T09:52:30.217Z,40.44
2018-05-08T09:54:58.486Z,40.23
2018-05-08T09:57:26.740Z,39.39
2018-05-08T09:59:55.016Z,40.30
2018-05-08T10:02:24.049Z,39.30
2018-05-08T10:04:52.301Z,41.09
2018-05-08T10:07:20.557Z,41.52
2018-05-08T10:09:49.580Z,40.57
2018-05-08T10:12:17.847Z,40.21
2018-05-08T10:14:46.117Z,39.28
2018-05-08T10:17:15.129Z,38.69
2018-05-08T10:19:43.406Z,38.68
2018-05-08T10:22:11.649Z,39.62
2018-05-08T10:24:40.658Z,39.37
2018-05-08T10:27:08.942Z,38.92
2018-05-08T10:29:37.229Z,39.11
2018-05-08T10:32:05.481Z,38.93
2018-05-08T10:34:33.778Z,36.94
2018-05-08T10:37:02.045Z,38.10
2018-05-08T10:39:30.285Z,37.83
2018-05-08T10:41:58.541Z,38.32
2018-05-08T10:44:26.897Z,39.75
2018-05-08T10:46:55.929Z,40.32
2018-05-08T10:49:24.168Z,38.62
2018-05-08T10:51:52.444Z,37.88
2018-05-08T10:54:20.701Z,38.20
2018-05-08T10:56:48.997Z,39.07
2018-05-08T10:59:17.258Z,36.36
2018-05-08T11:01:45.570Z,37.04
2018-05-08T11:04:13.796Z,37.55
2018-05-08T11:06:42.054Z,38.29
2018-05-08T11:09:11.179Z,38.13
2018-05-08T11:11:40.168Z,36.95
2018-05-08T11:14:08.418Z,38.36
2018-05-08T11:16:37.441Z,38.77
2018-05-08T11:19:05.705Z,37.46
2018-05-08T11:21:33.955Z,37.52
2018-05-08T11:24:02.974Z,35.06
2018-05-08T11:26:31.353Z,34.94
2018-05-08T11:28:59.554Z,36.64
2018-05-08T11:31:27.810Z,35.89
2018-05-08T11:33:56.092Z,35.82
2018-05-08T11:36:24.344Z,35.72
2018-05-08T11:38:53.354Z,37.22
2018-05-08T11:41:21.656Z,35.78
2018-05-08T11:43:49.897Z,35.81
2018-05-08T11:46:18.155Z,37.49
2018-05-08T11:48:47.185Z,35.42
2018-05-08T11:51:15.449Z,35.67
2018-05-08T11:53:43.694Z,35.61
2018-05-08T11:56:12.731Z,34.74
2018-05-08T11:58:40.979Z,35.09
2018-05-08T12:01:09.998Z,32.87
2018-05-08T12:03:38.268Z,33.73
2018-05-08T12:06:06.528Z,34.04
2018-05-08T12:08:35.549Z,34.23
2018-05-08T12:11:03.813Z,36.00
2018-05-08T12:13:32.067Z,33.95
2018-05-08T12:16:01.078Z,34.57
2018-05-08T12:18:29.344Z,34.99
2018-05-08T12:20:57.609Z,34.56
2018-05-08T12:23:26.689Z,34.13
2018-05-08T12:25:54.957Z,34.43
2018-05-08T12:28:23.208Z,35.41
2018-05-08T12:30:51.453Z,34.92
2018-05-08T12:33:19.722Z,34.89
2018-05-08T12:35:47.998Z,35.06
2018-05-08T12:38:16.252Z,34.73
2018-05-08T12:40:44.542Z,34.11
2018-05-08T12:43:13.644Z,33.82
2018-05-08T12:45:41.826Z,33.23
2018-05-08T12:48:10.086Z,33.95
2018-05-08T12:50:39.126Z,34.41
2018-05-08T12:53:07.374Z,33.63
2018-05-08T12:55:35.644Z,33.91
2018-05-08T12:58:03.901Z,33.19
2018-05-08T13:00:32.920Z,34.36
2018-05-08T13:03:01.188Z,33.37
2018-05-08T13:05:29.443Z,33.71
2018-05-08T13:07:57.690Z,33.61
2018-05-08T13:10:25.961Z,34.93
2018-05-08T13:12:54.265Z,34.30
2018-05-08T13:15:22.509Z,32.63
2018-05-08T13:17:51.539Z,33.33
2018-05-08T13:20:19.799Z,33.21
2018-05-08T13:22:48.076Z,33.25
2018-05-08T13:25:16.405Z,31.96
2018-05-08T13:27:44.655Z,32.21
2018-05-08T13:30:13.681Z,32.26
2018-05-08T13:32:41.966Z,31.21
2018-05-08T13:35:11.158Z,29.67
2018-05-08T13:37:39.417Z,28.47
2018-05-08T13:40:07.686Z,28.18
2018-05-08T13:42:35.936Z,27.40
2018-05-08T13:45:04.186Z,26.14
2018-05-08T13:47:32.478Z,26.10
2018-05-08T13:50:00.720Z,26.20
2018-05-08T13:52:28.983Z,26.86
2018-05-08T13:54:57.320Z,25.07
2018-05-08T13:57:25.512Z,24.94
2018-05-08T13:59:53.768Z,26.00
2018-05-08T14:02:22.033Z,25.22
2018-05-08T14:04:50.370Z,25.11
2018-05-08T14:07:19.188Z,23.72
2018-05-08T14:09:47.452Z,23.60
2018-05-08T14:12:15.708Z,24.34
2018-05-08T14:14:43.986Z,24.29
2018-05-08T14:17:12.258Z,23.94
2018-05-08T14:19:40.510Z,23.31
2018-05-08T14:22:09.558Z,22.66
2018-05-08T14:24:37.831Z,22.68
2018-05-08T14:27:06.091Z,22.88
2018-05-08T14:29:34.341Z,23.28
2018-05-08T14:32:02.637Z,22.36
2018-05-08T14:34:30.878Z,22.93
2018-05-08T14:36:59.952Z,22.73
2018-05-08T14:39:28.179Z,22.98
2018-05-08T14:41:56.435Z,23.45
2018-05-08T14:44:25.461Z,22.87
2018-05-08T14:46:53.727Z,23.60
2018-05-08T14:49:21.985Z,22.22
2018-05-08T14:51:50.281Z,23.78
2018-05-08T14:54:18.556Z,22.40
2018-05-08T14:56:46.818Z,22.79
2018-05-08T14:59:15.073Z,22.56
2018-05-08T15:01:44.100Z,22.00
2018-05-08T15:04:12.440Z,22.75
2018-05-08T15:06:40.621Z,22.60
2018-05-08T15:09:09.649Z,22.51
2018-05-08T15:11:37.916Z,22.34
2018-05-08T15:14:06.207Z,20.72
2018-05-08T15:16:34.485Z,21.04
2018-05-08T15:19:02.734Z,22.32
2018-05-08T15:21:30.989Z,21.97
2018-05-08T15:24:00.030Z,22.71
2018-05-08T15:26:28.305Z,21.77
2018-05-08T15:28:56.768Z,22.87
2018-05-08T15:31:25.026Z,23.69
2018-05-08T15:33:54.047Z,23.24
2018-05-08T15:36:22.302Z,23.77
2018-05-08T15:38:50.581Z,23.80
2018-05-08T15:41:18.874Z,23.90
2018-05-08T15:43:47.121Z,21.51
2018-05-08T15:46:16.147Z,22.39
2018-05-08T15:48:44.397Z,22.44
2018-05-08T15:51:13.417Z,23.23
2018-05-08T15:53:41.685Z,23.34
2018-05-08T15:56:09.937Z,23.84
2018-05-08T15:58:38.977Z,23.05
2018-05-08T16:01:07.246Z,23.33
2018-05-08T16:03:35.519Z,22.37
2018-05-08T16:06:03.789Z,22.37
2018-05-08T16:08:32.934Z,23.18
2018-05-08T16:11:01.192Z,23.84
2018-05-08T16:13:29.444Z,23.32
2018-05-08T16:15:57.714Z,23.66
2018-05-08T16:18:25.964Z,24.04
2018-05-08T16:20:55.030Z,23.68
2018-05-08T16:23:23.257Z,23.83
2018-05-08T16:25:51.513Z,24.49
2018-05-08T16:28:20.525Z,24.75
2018-05-08T16:30:48.784Z,24.78
2018-05-08T16:33:17.070Z,24.13
2018-05-08T16:35:45.320Z,23.63
2018-05-08T16:38:14.350Z,24.25
2018-05-08T16:40:42.601Z,23.60
2018-05-08T16:43:11.621Z,24.19
2018-05-08T16:45:39.892Z,23.83
2018-05-08T16:48:08.163Z,23.55
2018-05-08T16:50:36.410Z,23.94
2018-05-08T16:53:05.444Z,23.79
2018-05-08T16:55:33.712Z,24.54
2018-05-08T16:58:01.952Z,23.54
2018-05-08T17:00:31.027Z,23.95
2018-05-08T17:02:59.279Z,24.54
2018-05-08T17:05:27.532Z,24.14
2018-05-08T17:07:55.846Z,24.17
2018-05-08T17:10:24.233Z,24.45
2018-05-08T17:12:52.491Z,24.51
2018-05-08T17:15:20.762Z,25.33
2018-05-08T17:17:49.049Z,24.71
2018-05-08T17:20:17.267Z,25.22
2018-05-08T17:22:46.303Z,24.88
2018-05-08T17:25:14.560Z,23.87
2018-05-08T17:27:42.812Z,24.38
2018-05-08T17:30:11.848Z,24.50
2018-05-08T17:32:40.102Z,24.48
2018-05-08T17:35:08.357Z,24.68
2018-05-08T17:37:37.394Z,24.62
2018-05-08T17:40:05.694Z,24.76
2018-05-08T17:42:34.036Z,24.90
2018-05-08T17:45:02.365Z,25.32
2018-05-08T17:47:31.448Z,25.47
2018-05-08T17:49:59.791Z,25.47
2018-05-08T17:52:28.063Z,25.52
2018-05-08T17:54:56.317Z,25.74
2018-05-08T17:57:25.340Z,26.35
2018-05-08T17:59:53.603Z,26.86
2018-05-08T18:02:21.864Z,27.66
2018-05-08T18:04:50.881Z,29.31
2018-05-08T18:07:19.158Z,31.06
2018-05-08T18:09:47.433Z,31.70
2018-05-08T18:12:15.712Z,33.31
2018-05-08T18:14:43.993Z,34.81
2018-05-08T18:17:12.258Z,35.02
2018-05-08T18:19:40.528Z,36.49
2018-05-08T18:22:08.799Z,37.20
2018-05-08T18:24:37.131Z,38.66
2018-05-08T18:27:05.382Z,39.68
2018-05-08T18:29:33.705Z,41.32
2018-05-08T18:32:02.791Z,42.25
2018-05-08T18:34:31.088Z,41.97
2018-05-08T18:37:00.514Z,43.90
2018-05-08T18:39:29.298Z,43.80
2018-05-08T18:41:58.208Z,44.84
2018-05-08T18:44:28.096Z,44.78
2018-05-08T18:46:57.138Z,45.65
2018-05-08T18:49:26.552Z,46.12
2018-05-08T18:51:55.857Z,45.57
2018-05-08T18:54:25.100Z,46.26
2018-05-08T18:56:55.261Z,46.20
2018-05-08T18:59:24.508Z,47.41
2018-05-08T19:01:53.898Z,47.41
2018-05-08T19:04:23.928Z,48.02
2018-05-08T19:06:53.154Z,47.96
2018-05-08T19:09:22.638Z,48.21
2018-05-08T19:11:52.635Z,48.89
2018-05-08T19:14:21.973Z,49.64
2018-05-08T19:16:52.133Z,50.39
2018-05-08T19:19:27.666Z,50.33
2018-05-08T19:21:56.929Z,50.75
2018-05-08T19:24:32.346Z,51.56
2018-05-08T19:27:01.627Z,51.51
2018-05-08T19:29:36.292Z,51.58
2018-05-08T19:32:05.559Z,51.89
2018-05-08T19:34:40.455Z,52.66
2018-05-08T19:37:15.093Z,53.00
2018-05-08T19:39:44.486Z,53.53
2018-05-08T19:42:13.775Z,53.57
2018-05-08T19:44:43.032Z,53.98
2018-05-08T19:47:12.466Z,54.40
2018-05-08T19:49:42.516Z,54.99
2018-05-08T19:52:11.852Z,55.46
2018-05-08T19:54:41.122Z,55.80
2018-05-08T19:57:10.561Z,55.82
2018-05-08T19:59:40.016Z,55.83
2018-05-08T20:02:09.399Z,56.21
2018-05-08T20:04:39.531Z,56.05
2018-05-08T20:07:08.921Z,56.82
2018-05-08T20:09:39.877Z,56.46
2018-05-08T20:12:09.279Z,56.57
2018-05-08T20:14:39.606Z,56.48
2018-05-08T20:17:09.009Z,56.36
2018-05-08T20:19:38.257Z,56.66
2018-05-08T20:22:07.598Z,57.02
2018-05-08T20:24:36.896Z,57.29
2018-05-08T20:27:06.167Z,57.03
2018-05-08T20:29:35.521Z,57.29
2018-05-08T20:32:04.771Z,57.80
2018-05-08T20:34:35.068Z,57.97
2018-05-08T20:37:04.885Z,57.94
2018-05-08T20:39:34.144Z,58.32
2018-05-08T20:42:04.195Z,58.84
2018-05-08T20:44:33.546Z,58.71
2018-05-08T20:47:03.665Z,59.49
2018-05-08T20:49:33.730Z,59.39
2018-05-08T20:52:03.121Z,59.51
2018-05-08T20:54:32.470Z,59.62
2018-05-08T20:57:01.639Z,60.00
2018-05-08T20:59:30.970Z,60.28
2018-05-08T21:02:00.897Z,60.16
2018-05-08T21:04:31.002Z,59.99
2018-05-08T21:07:00.194Z,60.20
2018-05-08T21:09:29.347Z,60.75
2018-05-08T21:11:58.308Z,61.95
2018-05-08T21:14:27.232Z,61.96
2018-05-08T21:16:56.011Z,62.03
2018-05-08T21:19:24.336Z,63.26
2018-05-08T21:21:53.379Z,62.48
2018-05-08T21:24:21.636Z,62.48
2018-05-08T21:26:49.893Z,62.91
2018-05-08T21:29:23.781Z,62.64
2018-05-08T21:31:52.812Z,62.93
2018-05-08T21:34:21.065Z,63.07
2018-05-08T21:36:50.078Z,63.26
2018-05-08T21:39:18.433Z,62.78
2018-05-08T21:41:47.453Z,62.70
2018-05-08T21:44:15.706Z,62.75
2018-05-08T21:46:43.970Z,62.42
2018-05-08T21:49:12.982Z,63.22
2018-05-08T21:51:41.238Z,62.82
2018-05-08T21:54:10.265Z,62.17
2018-05-08T21:56:38.513Z,63.18
2018-05-08T21:59:07.537Z,62.99
2018-05-08T22:01:35.797Z,63.01
2018-05-08T22:04:04.052Z,62.60
2018-05-08T22:06:33.067Z,63.28
2018-05-08T22:09:01.347Z,62.95
2018-05-08T22:11:29.626Z,63.81
2018-05-08T22:13:57.905Z,63.40
2018-05-08T22:16:26.173Z,62.87
2018-05-08T22:18:54.429Z,63.47
2018-05-08T22:21:23.450Z,63.30
2018-05-08T22:23:51.729Z,63.35
2018-05-08T22:26:20.070Z,63.93
2018-05-08T22:28:48.373Z,64.51
2018-05-08T22:31:16.661Z,64.42
2018-05-08T22:33:44.907Z,65.43
2018-05-08T22:36:13.934Z,65.36
2018-05-08T22:38:42.213Z,65.90
2018-05-08T22:41:10.478Z,65.77
2018-05-08T22:43:38.721Z,65.87
2018-05-08T22:46:07.749Z,66.00
2018-05-08T22:48:36.003Z,66.20
2018-05-08T22:51:05.021Z,66.01
2018-05-08T22:53:33.293Z,65.75
2018-05-08T22:56:01.556Z,65.63
2018-05-08T22:58:29.805Z,65.81
2018-05-08T23:00:58.118Z,65.60
2018-05-08T23:03:26.471Z,66.21
2018-05-08T23:05:54.789Z,66.29
2018-05-08T23:08:23.154Z,66.16
2018-05-08T23:10:51.484Z,66.50
2018-05-08T23:13:19.812Z,66.88
2018-05-08T23:15:48.133Z,67.28
2018-05-08T23:18:16.434Z,67.83
2018-05-08T23:20:45.534Z,68.48
2018-05-08T23:23:14.627Z,68.82
2018-05-08T23:25:42.948Z,68.78
2018-05-08T23:28:11.283Z,69.03
2018-05-08T23:30:40.326Z,69.55
2018-05-08T23:33:08.582Z,70.02
2018-05-08T23:35:36.825Z,69.82
2018-05-08T23:38:05.865Z,70.31
2018-05-08T23:40:34.124Z,70.17
2018-05-08T23:43:02.368Z,70.57
2018-05-08T23:45:31.414Z,70.68
2018-05-08T23:47:59.680Z,70.78
2018-05-08T23:50:27.965Z,70.78
2018-05-08T23:52:56.240Z,71.03
2018-05-08T23:55:24.553Z,71.17
2018-05-08T23:57:52.810Z,71.59
